createdAt,value
2023-01-09T00:00:08.191Z,7.77
2023-01-09T00:00:39.828Z,7.77
2023-01-09T00:01:11.743Z,7.77
2023-01-09T00:01:43.532Z,7.77
2023-01-09T00:02:15.593Z,7.77
2023-01-09T00:02:47.642Z,7.77
2023-01-09T00:03:19.639Z,7.72
2023-01-09T00:03:51.583Z,7.72
2023-01-09T00:04:23.531Z,7.77
2023-01-09T00:04:55.559Z,7.77
2023-01-09T00:05:27.734Z,7.77
2023-01-09T00:05:59.446Z,7.77
2023-01-09T00:06:31.875Z,7.77
2023-01-09T00:07:03.454Z,7.77
2023-01-09T00:07:35.520Z,7.77
2023-01-09T00:08:07.295Z,7.77
2023-01-09T00:08:39.300Z,7.77
2023-01-09T00:09:11.341Z,7.77
2023-01-09T00:09:43.357Z,7.77
2023-01-09T00:10:15.259Z,7.77
2023-01-09T00:10:47.233Z,7.72
2023-01-09T00:11:19.284Z,7.72
2023-01-09T00:11:51.363Z,7.72
2023-01-09T00:12:23.208Z,7.72
2023-01-09T00:12:55.147Z,7.77
2023-01-09T00:13:27.136Z,7.77
2023-01-09T00:13:59.204Z,7.77
2023-01-09T00:14:31.119Z,7.77
2023-01-09T00:15:03.209Z,7.77
2023-01-09T00:15:35.162Z,7.77
2023-01-09T00:16:06.961Z,7.77
2023-01-09T00:16:38.978Z,7.77
2023-01-09T00:17:11.004Z,7.77
2023-01-09T00:17:43.007Z,7.77
2023-01-09T00:18:15.062Z,7.77
2023-01-09T00:18:46.869Z,7.77
2023-01-09T00:19:18.842Z,7.77
2023-01-09T00:19:50.985Z,7.77
2023-01-09T00:20:22.785Z,7.77
2023-01-09T00:20:54.773Z,7.77
2023-01-09T00:21:26.741Z,7.77
2023-01-09T00:21:58.896Z,7.77
2023-01-09T00:22:30.663Z,7.77
2023-01-09T00:23:03.034Z,7.77
2023-01-09T00:23:34.743Z,7.77
2023-01-09T00:24:06.719Z,7.77
2023-01-09T00:24:38.660Z,7.77
2023-01-09T00:25:10.794Z,7.72
2023-01-09T00:25:42.685Z,7.72
2023-01-09T00:26:14.674Z,7.72
2023-01-09T00:26:46.459Z,7.72
2023-01-09T00:27:18.519Z,7.72
2023-01-09T00:27:50.628Z,7.72
2023-01-09T00:28:22.552Z,7.72
2023-01-09T00:28:54.434Z,7.72
2023-01-09T00:29:26.433Z,7.72
2023-01-09T00:29:58.418Z,7.72
2023-01-09T00:30:31.351Z,7.72
2023-01-09T00:31:02.367Z,7.72
2023-01-09T00:31:34.344Z,7.72
2023-01-09T00:32:06.362Z,7.72
2023-01-09T00:32:38.420Z,7.72
2023-01-09T00:33:10.207Z,7.72
2023-01-09T00:33:42.218Z,7.72
2023-01-09T00:34:14.301Z,7.72
2023-01-09T00:34:46.344Z,7.72
2023-01-09T00:35:18.165Z,7.72
2023-01-09T00:35:50.263Z,7.72
2023-01-09T00:36:22.268Z,7.72
2023-01-09T00:36:54.242Z,7.72
2023-01-09T00:37:26.057Z,7.72
2023-01-09T00:37:58.122Z,7.72
2023-01-09T00:38:30.116Z,7.72
2023-01-09T00:39:02.144Z,7.72
2023-01-09T00:39:33.977Z,7.72
2023-01-09T00:40:06.022Z,7.72
2023-01-09T00:40:38.036Z,7.72
2023-01-09T00:41:10.057Z,7.72
2023-01-09T00:41:41.920Z,7.72
2023-01-09T00:42:13.885Z,7.72
2023-01-09T00:42:46.327Z,7.72
2023-01-09T00:43:17.969Z,7.72
2023-01-09T00:43:49.797Z,7.72
2023-01-09T00:44:21.835Z,7.77
2023-01-09T00:44:53.830Z,7.77
2023-01-09T00:45:26.084Z,7.77
2023-01-09T00:45:57.811Z,7.77
2023-01-09T00:46:29.790Z,7.72
2023-01-09T00:47:01.782Z,7.72
2023-01-09T00:47:34.469Z,7.72
2023-01-09T00:48:05.669Z,7.72
2023-01-09T00:48:37.636Z,7.72
2023-01-09T00:49:09.669Z,7.72
2023-01-09T00:49:41.724Z,7.72
2023-01-09T00:50:13.543Z,7.72
2023-01-09T00:50:45.520Z,7.72
2023-01-09T00:51:17.633Z,7.72
2023-01-09T00:51:49.460Z,7.72
2023-01-09T00:52:21.532Z,7.72
2023-01-09T00:52:53.467Z,7.72
2023-01-09T00:53:25.583Z,7.72
2023-01-09T00:53:57.344Z,7.72
2023-01-09T00:54:29.428Z,7.72
2023-01-09T00:55:01.608Z,7.72
2023-01-09T00:55:33.440Z,7.72
2023-01-09T00:56:05.241Z,7.72
2023-01-09T00:56:37.254Z,7.72
2023-01-09T00:57:09.315Z,7.72
2023-01-09T00:57:41.318Z,7.72
2023-01-09T00:58:13.167Z,7.72
2023-01-09T00:58:45.226Z,7.72
2023-01-09T00:59:17.235Z,7.72
2023-01-09T00:59:49.261Z,7.72
2023-01-09T01:00:21.347Z,7.72
2023-01-09T01:00:53.303Z,7.72
2023-01-09T01:01:25.279Z,7.72
2023-01-09T01:01:57.446Z,7.72
2023-01-09T01:02:29.222Z,7.72
2023-01-09T01:03:01.115Z,7.72
2023-01-09T01:03:33.070Z,7.61
2023-01-09T01:04:05.345Z,7.61
2023-01-09T01:04:36.862Z,7.61
2023-01-09T01:05:09.346Z,7.61
2023-01-09T01:05:40.964Z,7.61
2023-01-09T01:06:12.967Z,7.61
2023-01-09T01:06:44.881Z,7.61
2023-01-09T01:07:16.850Z,7.61
2023-01-09T01:07:48.931Z,7.61
2023-01-09T01:08:20.948Z,7.61
2023-01-09T01:08:52.755Z,7.61
2023-01-09T01:09:24.786Z,7.61
2023-01-09T01:09:56.766Z,7.61
2023-01-09T01:10:28.844Z,7.50
2023-01-09T01:11:00.691Z,7.50
2023-01-09T01:11:32.905Z,7.50
2023-01-09T01:12:04.726Z,7.50
2023-01-09T01:12:36.755Z,7.50
2023-01-09T01:13:08.577Z,7.50
2023-01-09T01:13:40.630Z,7.50
2023-01-09T01:14:12.668Z,7.50
2023-01-09T01:14:44.656Z,7.50
2023-01-09T01:15:16.648Z,7.50
2023-01-09T01:15:48.555Z,7.50
2023-01-09T01:16:20.630Z,7.50
2023-01-09T01:16:52.573Z,7.50
2023-01-09T01:17:24.734Z,7.50
2023-01-09T01:17:56.358Z,7.50
2023-01-09T01:18:28.503Z,7.38
2023-01-09T01:19:00.516Z,7.38
2023-01-09T01:19:32.336Z,7.38
2023-01-09T01:20:04.341Z,7.38
2023-01-09T01:20:36.372Z,7.38
2023-01-09T01:21:08.195Z,7.38
2023-01-09T01:21:40.241Z,7.38
2023-01-09T01:22:12.248Z,7.38
2023-01-09T01:22:44.328Z,7.27
2023-01-09T01:23:16.120Z,7.27
2023-01-09T01:23:48.160Z,7.27
2023-01-09T01:24:20.232Z,7.27
2023-01-09T01:24:52.213Z,7.27
2023-01-09T01:25:24.046Z,7.27
2023-01-09T01:25:56.113Z,7.27
2023-01-09T01:26:28.123Z,7.22
2023-01-09T01:27:00.323Z,7.22
2023-01-09T01:27:34.882Z,7.22
2023-01-09T01:28:04.002Z,7.22
2023-01-09T01:28:36.958Z,7.22
2023-01-09T01:29:08.050Z,7.22
2023-01-09T01:29:40.673Z,7.22
2023-01-09T01:30:12.070Z,7.22
2023-01-09T01:30:44.913Z,7.22
2023-01-09T01:31:15.831Z,7.22
2023-01-09T01:31:48.840Z,7.11
2023-01-09T01:32:19.861Z,7.11
2023-01-09T01:32:52.793Z,7.11
2023-01-09T01:33:23.705Z,7.11
2023-01-09T01:33:57.032Z,7.11
2023-01-09T01:34:27.758Z,7.11
2023-01-09T01:35:01.021Z,7.11
2023-01-09T01:35:31.621Z,7.11
2023-01-09T01:36:04.502Z,7.11
2023-01-09T01:36:35.822Z,7.11
2023-01-09T01:37:08.670Z,7.11
2023-01-09T01:37:39.573Z,7.11
2023-01-09T01:38:12.602Z,7.11
2023-01-09T01:38:43.630Z,7.11
2023-01-09T01:39:16.472Z,7.11
2023-01-09T01:39:47.476Z,7.11
2023-01-09T01:40:20.456Z,7.11
2023-01-09T01:40:51.520Z,7.11
2023-01-09T01:41:24.226Z,7.00
2023-01-09T01:41:55.796Z,7.00
2023-01-09T01:42:28.257Z,7.00
2023-01-09T01:42:59.442Z,7.00
2023-01-09T01:43:32.182Z,7.00
2023-01-09T01:44:03.270Z,7.00
2023-01-09T01:44:36.416Z,7.00
2023-01-09T01:45:07.673Z,7.00
2023-01-09T01:45:40.157Z,7.00
2023-01-09T01:46:11.238Z,7.00
2023-01-09T01:46:44.155Z,7.00
2023-01-09T01:47:15.253Z,7.00
2023-01-09T01:47:48.064Z,6.88
2023-01-09T01:48:19.155Z,6.88
2023-01-09T01:48:52.372Z,6.88
2023-01-09T01:49:23.319Z,6.88
2023-01-09T01:49:55.884Z,6.88
2023-01-09T01:50:27.046Z,6.88
2023-01-09T01:50:59.947Z,6.88
2023-01-09T01:51:31.144Z,6.88
2023-01-09T01:52:03.834Z,6.88
2023-01-09T01:52:35.080Z,6.88
2023-01-09T01:53:07.896Z,6.88
2023-01-09T01:53:39.038Z,6.88
2023-01-09T01:54:11.755Z,6.88
2023-01-09T01:54:42.920Z,6.88
2023-01-09T01:55:15.828Z,6.88
2023-01-09T01:55:46.929Z,6.88
2023-01-09T01:56:19.650Z,6.88
2023-01-09T01:56:50.817Z,6.77
2023-01-09T01:57:23.675Z,6.77
2023-01-09T01:57:54.806Z,6.77
2023-01-09T01:58:27.569Z,6.77
2023-01-09T01:58:58.693Z,6.77
2023-01-09T01:59:31.658Z,6.77
2023-01-09T02:00:02.960Z,6.77
2023-01-09T02:00:35.731Z,6.77
2023-01-09T02:01:06.764Z,6.77
2023-01-09T02:01:39.593Z,6.77
2023-01-09T02:02:10.620Z,6.77
2023-01-09T02:02:43.517Z,6.77
2023-01-09T02:03:14.531Z,6.77
2023-01-09T02:03:47.597Z,6.77
2023-01-09T02:04:21.959Z,6.77
2023-01-09T02:04:51.345Z,6.77
2023-01-09T02:05:22.477Z,6.77
2023-01-09T02:05:55.362Z,6.77
2023-01-09T02:06:26.344Z,6.77
2023-01-09T02:06:59.313Z,6.77
2023-01-09T02:07:30.353Z,6.77
2023-01-09T02:08:03.301Z,6.77
2023-01-09T02:08:34.216Z,6.77
2023-01-09T02:09:07.157Z,6.72
2023-01-09T02:09:38.292Z,6.72
2023-01-09T02:10:11.128Z,6.72
2023-01-09T02:10:42.103Z,6.72
2023-01-09T02:11:15.071Z,6.72
2023-01-09T02:11:46.232Z,6.72
2023-01-09T02:12:19.133Z,6.72
2023-01-09T02:12:50.060Z,6.72
2023-01-09T02:13:23.116Z,6.72
2023-01-09T02:13:54.118Z,6.72
2023-01-09T02:14:27.039Z,6.72
2023-01-09T02:14:57.933Z,6.72
2023-01-09T02:15:31.073Z,6.72
2023-01-09T02:16:02.030Z,6.72
2023-01-09T02:16:35.196Z,6.72
2023-01-09T02:17:05.901Z,6.72
2023-01-09T02:17:38.848Z,6.72
2023-01-09T02:18:09.966Z,6.72
2023-01-09T02:18:42.957Z,6.72
2023-01-09T02:19:13.801Z,6.72
2023-01-09T02:19:46.791Z,6.72
2023-01-09T02:20:17.917Z,6.72
2023-01-09T02:20:50.819Z,6.72
2023-01-09T02:21:21.705Z,6.72
2023-01-09T02:21:54.647Z,6.72
2023-01-09T02:22:25.797Z,6.72
2023-01-09T02:22:58.709Z,6.72
2023-01-09T02:23:29.644Z,6.72
2023-01-09T02:24:02.743Z,6.72
2023-01-09T02:24:34.143Z,6.72
2023-01-09T02:25:06.579Z,6.72
2023-01-09T02:25:37.547Z,6.72
2023-01-09T02:26:10.674Z,6.72
2023-01-09T02:26:41.600Z,6.72
2023-01-09T02:27:14.540Z,6.72
2023-01-09T02:27:45.457Z,6.72
2023-01-09T02:28:18.409Z,6.72
2023-01-09T02:28:49.506Z,6.72
2023-01-09T02:29:23.139Z,6.72
2023-01-09T02:29:53.358Z,6.72
2023-01-09T02:30:26.583Z,6.72
2023-01-09T02:30:57.747Z,6.72
2023-01-09T02:31:30.149Z,6.72
2023-01-09T02:32:01.299Z,6.72
2023-01-09T02:32:34.169Z,6.72
2023-01-09T02:33:05.327Z,6.72
2023-01-09T02:33:38.102Z,6.72
2023-01-09T02:34:09.206Z,6.72
2023-01-09T02:34:42.133Z,6.72
2023-01-09T02:35:13.239Z,6.72
2023-01-09T02:35:46.015Z,6.72
2023-01-09T02:36:17.185Z,6.72
2023-01-09T02:36:50.126Z,6.72
2023-01-09T02:37:21.175Z,6.72
2023-01-09T02:37:53.946Z,6.72
2023-01-09T02:38:25.026Z,6.72
2023-01-09T02:38:58.142Z,6.72
2023-01-09T02:39:29.081Z,6.72
2023-01-09T02:40:02.002Z,6.72
2023-01-09T02:40:32.925Z,6.72
2023-01-09T02:41:05.871Z,6.72
2023-01-09T02:41:37.033Z,6.72
2023-01-09T02:42:09.603Z,5.57
2023-01-09T02:42:40.905Z,6.72
2023-01-09T02:43:13.895Z,6.72
2023-01-09T02:43:44.945Z,6.72
2023-01-09T02:44:17.946Z,6.72
2023-01-09T02:44:48.740Z,6.72
2023-01-09T02:45:21.863Z,6.72
2023-01-09T02:45:52.836Z,6.72
2023-01-09T02:46:25.593Z,6.72
2023-01-09T02:46:56.719Z,6.72
2023-01-09T02:47:29.618Z,6.72
2023-01-09T02:48:00.772Z,6.72
2023-01-09T02:48:33.489Z,6.72
2023-01-09T02:49:04.549Z,6.72
2023-01-09T02:49:37.373Z,6.72
2023-01-09T02:50:08.650Z,6.72
2023-01-09T02:50:41.515Z,6.72
2023-01-09T02:51:12.479Z,6.72
2023-01-09T02:51:45.508Z,6.72
2023-01-09T02:52:16.646Z,6.72
2023-01-09T02:52:49.247Z,6.72
2023-01-09T02:53:20.394Z,6.72
2023-01-09T02:53:53.410Z,6.72
2023-01-09T02:54:24.448Z,6.72
2023-01-09T02:54:57.180Z,6.72
2023-01-09T02:55:28.390Z,6.72
2023-01-09T02:56:01.160Z,6.72
2023-01-09T02:56:32.418Z,6.72
2023-01-09T02:57:05.140Z,6.72
2023-01-09T02:57:36.249Z,6.72
2023-01-09T02:58:09.208Z,6.72
2023-01-09T02:58:40.293Z,6.72
2023-01-09T02:59:13.042Z,6.72
2023-01-09T02:59:44.200Z,6.72
2023-01-09T03:00:18.427Z,6.72
2023-01-09T03:00:48.082Z,6.72
2023-01-09T03:01:21.081Z,6.72
2023-01-09T03:01:52.282Z,6.72
2023-01-09T03:02:25.002Z,6.72
2023-01-09T03:02:56.024Z,6.72
2023-01-09T03:03:28.994Z,6.72
2023-01-09T03:04:00.013Z,6.72
2023-01-09T03:04:32.894Z,6.72
2023-01-09T03:05:03.896Z,6.72
2023-01-09T03:05:36.886Z,6.72
2023-01-09T03:06:07.923Z,6.72
2023-01-09T03:06:40.937Z,6.72
2023-01-09T03:07:11.863Z,6.72
2023-01-09T03:07:44.733Z,6.72
2023-01-09T03:08:15.869Z,6.77
2023-01-09T03:08:48.749Z,6.77
2023-01-09T03:09:20.965Z,6.77
2023-01-09T03:09:52.595Z,6.77
2023-01-09T03:10:23.716Z,6.77
2023-01-09T03:10:56.669Z,6.77
2023-01-09T03:11:27.579Z,6.77
2023-01-09T03:12:00.567Z,6.77
2023-01-09T03:12:31.683Z,6.77
2023-01-09T03:13:04.581Z,6.77
2023-01-09T03:13:35.549Z,6.77
2023-01-09T03:14:09.140Z,6.77
2023-01-09T03:14:44.598Z,6.77
2023-01-09T03:15:12.668Z,6.72
2023-01-09T03:15:43.410Z,6.72
2023-01-09T03:16:16.418Z,6.72
2023-01-09T03:16:47.440Z,6.72
2023-01-09T03:17:20.418Z,6.72
2023-01-09T03:17:51.341Z,6.72
2023-01-09T03:18:24.280Z,6.72
2023-01-09T03:18:55.349Z,6.72
2023-01-09T03:19:28.270Z,6.72
2023-01-09T03:19:59.260Z,6.72
2023-01-09T03:20:32.215Z,5.87
2023-01-09T03:21:03.299Z,6.72
2023-01-09T03:21:37.070Z,6.72
2023-01-09T03:22:07.130Z,6.72
2023-01-09T03:22:40.031Z,6.72
2023-01-09T03:23:11.194Z,6.72
2023-01-09T03:23:44.243Z,6.72
2023-01-09T03:24:15.129Z,6.72
2023-01-09T03:24:47.967Z,6.72
2023-01-09T03:25:19.133Z,6.72
2023-01-09T03:25:52.021Z,6.72
2023-01-09T03:26:23.036Z,6.72
2023-01-09T03:26:55.929Z,6.72
2023-01-09T03:27:27.043Z,6.72
2023-01-09T03:27:59.883Z,6.72
2023-01-09T03:28:30.910Z,6.72
2023-01-09T03:29:03.816Z,6.72
2023-01-09T03:29:35.353Z,6.72
2023-01-09T03:30:08.012Z,6.72
2023-01-09T03:30:38.844Z,6.72
2023-01-09T03:31:11.792Z,6.72
2023-01-09T03:31:42.988Z,6.72
2023-01-09T03:32:15.511Z,6.72
2023-01-09T03:32:46.746Z,5.93
2023-01-09T03:33:19.706Z,6.77
2023-01-09T03:33:50.821Z,6.77
2023-01-09T03:34:23.429Z,6.77
2023-01-09T03:34:54.676Z,6.77
2023-01-09T03:35:27.517Z,6.77
2023-01-09T03:35:58.727Z,6.77
2023-01-09T03:36:31.474Z,6.77
2023-01-09T03:37:02.556Z,6.77
2023-01-09T03:37:35.864Z,6.77
2023-01-09T03:38:08.051Z,6.77
2023-01-09T03:38:39.315Z,6.72
2023-01-09T03:39:10.459Z,6.72
2023-01-09T03:39:43.441Z,6.72
2023-01-09T03:40:16.090Z,6.72
2023-01-09T03:40:47.225Z,6.72
2023-01-09T03:41:18.390Z,6.72
2023-01-09T03:41:51.231Z,6.72
2023-01-09T03:42:22.446Z,6.72
2023-01-09T03:42:55.193Z,6.72
2023-01-09T03:43:26.347Z,6.72
2023-01-09T03:43:59.331Z,6.72
2023-01-09T03:44:30.331Z,6.72
2023-01-09T03:45:03.193Z,6.77
2023-01-09T03:45:34.205Z,6.77
2023-01-09T03:46:07.191Z,6.77
2023-01-09T03:46:38.274Z,6.77
2023-01-09T03:47:10.974Z,6.77
2023-01-09T03:47:42.085Z,6.77
2023-01-09T03:48:15.104Z,6.77
2023-01-09T03:48:46.189Z,6.77
2023-01-09T03:49:18.888Z,6.77
2023-01-09T03:49:50.023Z,6.77
2023-01-09T03:50:22.986Z,6.77
2023-01-09T03:50:54.037Z,6.77
2023-01-09T03:51:26.924Z,6.77
2023-01-09T03:51:58.067Z,6.77
2023-01-09T03:52:30.936Z,6.77
2023-01-09T03:53:01.863Z,6.77
2023-01-09T03:53:35.591Z,6.77
2023-01-09T03:54:05.886Z,6.77
2023-01-09T03:54:38.691Z,6.77
2023-01-09T03:55:09.790Z,6.77
2023-01-09T03:55:42.599Z,6.77
2023-01-09T03:56:13.796Z,6.77
2023-01-09T03:56:46.631Z,6.77
2023-01-09T03:57:17.626Z,6.77
2023-01-09T03:57:50.497Z,6.77
2023-01-09T03:58:21.678Z,6.77
2023-01-09T03:58:54.721Z,6.77
2023-01-09T03:59:25.609Z,6.77
2023-01-09T03:59:58.392Z,6.77
2023-01-09T04:00:29.879Z,6.77
2023-01-09T04:01:02.727Z,6.77
2023-01-09T04:01:34.203Z,6.77
2023-01-09T04:02:06.571Z,6.77
2023-01-09T04:02:37.552Z,6.77
2023-01-09T04:03:10.591Z,6.77
2023-01-09T04:03:41.519Z,6.77
2023-01-09T04:04:14.381Z,6.77
2023-01-09T04:04:46.072Z,6.77
2023-01-09T04:05:18.394Z,6.77
2023-01-09T04:05:49.338Z,6.77
2023-01-09T04:06:22.965Z,6.77
2023-01-09T04:06:53.385Z,6.77
2023-01-09T04:07:26.320Z,6.77
2023-01-09T04:07:57.220Z,6.77
2023-01-09T04:08:30.184Z,6.77
2023-01-09T04:09:01.254Z,6.77
2023-01-09T04:09:34.176Z,6.77
2023-01-09T04:10:05.132Z,6.77
2023-01-09T04:10:37.998Z,6.77
2023-01-09T04:11:09.183Z,6.77
2023-01-09T04:11:42.139Z,6.77
2023-01-09T04:12:13.084Z,6.77
2023-01-09T04:12:45.985Z,6.77
2023-01-09T04:13:17.199Z,6.77
2023-01-09T04:13:50.191Z,6.77
2023-01-09T04:14:20.973Z,6.77
2023-01-09T04:14:53.861Z,6.77
2023-01-09T04:15:25.200Z,6.77
2023-01-09T04:15:57.846Z,6.77
2023-01-09T04:16:29.483Z,6.77
2023-01-09T04:17:02.313Z,6.77
2023-01-09T04:17:32.928Z,6.77
2023-01-09T04:18:05.979Z,6.77
2023-01-09T04:18:36.805Z,6.77
2023-01-09T04:19:09.768Z,6.77
2023-01-09T04:19:40.868Z,6.77
2023-01-09T04:20:13.831Z,6.77
2023-01-09T04:20:44.967Z,6.77
2023-01-09T04:21:17.663Z,6.77
2023-01-09T04:21:48.787Z,6.77
2023-01-09T04:22:21.384Z,6.77
2023-01-09T04:22:52.610Z,6.77
2023-01-09T04:23:25.688Z,6.77
2023-01-09T04:23:56.629Z,6.77
2023-01-09T04:24:29.396Z,6.77
2023-01-09T04:25:00.671Z,6.77
2023-01-09T04:25:33.403Z,6.77
2023-01-09T04:26:04.555Z,6.77
2023-01-09T04:26:37.279Z,6.77
2023-01-09T04:27:08.468Z,6.77
2023-01-09T04:27:41.423Z,6.77
2023-01-09T04:28:17.311Z,6.77
2023-01-09T04:28:45.217Z,6.72
2023-01-09T04:29:16.392Z,6.72
2023-01-09T04:29:49.270Z,6.72
2023-01-09T04:30:20.603Z,6.72
2023-01-09T04:30:53.150Z,6.72
2023-01-09T04:31:24.412Z,6.72
2023-01-09T04:31:57.377Z,6.72
2023-01-09T04:32:28.353Z,6.72
2023-01-09T04:33:01.050Z,6.72
2023-01-09T04:33:32.225Z,6.72
2023-01-09T04:34:05.119Z,6.72
2023-01-09T04:34:36.274Z,6.72
2023-01-09T04:35:09.076Z,6.72
2023-01-09T04:35:40.082Z,6.72
2023-01-09T04:36:13.182Z,6.61
2023-01-09T04:36:44.175Z,6.61
2023-01-09T04:37:16.778Z,6.61
2023-01-09T04:37:48.027Z,6.61
2023-01-09T04:38:21.010Z,6.61
2023-01-09T04:38:52.117Z,6.61
2023-01-09T04:39:24.796Z,6.61
2023-01-09T04:39:55.939Z,6.61
2023-01-09T04:40:28.859Z,6.61
2023-01-09T04:41:00.020Z,6.61
2023-01-09T04:41:32.774Z,6.61
2023-01-09T04:42:03.810Z,6.61
2023-01-09T04:42:36.832Z,6.61
2023-01-09T04:43:07.905Z,6.61
2023-01-09T04:43:40.704Z,6.61
2023-01-09T04:44:11.788Z,6.61
2023-01-09T04:44:44.700Z,6.61
2023-01-09T04:45:15.974Z,6.61
2023-01-09T04:45:48.589Z,6.61
2023-01-09T04:46:19.701Z,6.61
2023-01-09T04:46:52.539Z,6.61
2023-01-09T04:47:23.785Z,6.61
2023-01-09T04:47:56.936Z,6.61
2023-01-09T04:48:27.642Z,6.61
2023-01-09T04:49:00.580Z,6.61
2023-01-09T04:49:31.682Z,6.61
2023-01-09T04:50:04.400Z,6.50
2023-01-09T04:50:35.802Z,6.50
2023-01-09T04:51:08.325Z,6.50
2023-01-09T04:51:39.408Z,6.50
2023-01-09T04:52:12.326Z,6.50
2023-01-09T04:52:43.372Z,6.50
2023-01-09T04:53:16.314Z,6.50
2023-01-09T04:53:47.273Z,6.50
2023-01-09T04:54:20.209Z,6.61
2023-01-09T04:54:51.337Z,6.61
2023-01-09T04:55:24.306Z,6.61
2023-01-09T04:55:55.221Z,6.61
2023-01-09T04:56:28.173Z,6.61
2023-01-09T04:56:59.248Z,6.61
2023-01-09T04:57:32.218Z,6.61
2023-01-09T04:58:03.116Z,6.61
2023-01-09T04:58:36.280Z,6.61
2023-01-09T04:59:07.178Z,6.61
2023-01-09T04:59:40.028Z,6.61
2023-01-09T05:00:11.617Z,6.61
2023-01-09T05:00:43.958Z,6.61
2023-01-09T05:01:15.209Z,6.61
2023-01-09T05:01:48.254Z,6.61
2023-01-09T05:02:18.974Z,6.61
2023-01-09T05:02:51.868Z,6.72
2023-01-09T05:03:22.943Z,6.72
2023-01-09T05:03:56.111Z,6.72
2023-01-09T05:04:27.039Z,6.72
2023-01-09T05:04:59.758Z,6.72
2023-01-09T05:05:30.894Z,6.72
2023-01-09T05:06:03.821Z,6.72
2023-01-09T05:06:35.089Z,6.72
2023-01-09T05:07:07.733Z,6.72
2023-01-09T05:07:38.871Z,6.72
2023-01-09T05:08:11.773Z,6.72
2023-01-09T05:08:42.656Z,6.72
2023-01-09T05:09:15.570Z,6.72
2023-01-09T05:09:46.737Z,6.72
2023-01-09T05:10:19.665Z,6.72
2023-01-09T05:10:50.530Z,6.72
2023-01-09T05:11:23.485Z,6.72
2023-01-09T05:11:54.661Z,6.72
2023-01-09T05:12:27.452Z,6.72
2023-01-09T05:12:58.454Z,6.72
2023-01-09T05:13:31.408Z,6.72
2023-01-09T05:14:02.532Z,6.72
2023-01-09T05:14:36.001Z,6.72
2023-01-09T05:15:06.675Z,6.72
2023-01-09T05:15:39.421Z,6.72
2023-01-09T05:16:11.391Z,6.72
2023-01-09T05:16:43.167Z,6.72
2023-01-09T05:17:14.284Z,6.72
2023-01-09T05:17:47.260Z,6.72
2023-01-09T05:18:18.396Z,6.72
2023-01-09T05:18:51.420Z,6.72
2023-01-09T05:19:22.242Z,6.72
2023-01-09T05:19:55.098Z,6.72
2023-01-09T05:20:26.317Z,6.72
2023-01-09T05:20:59.033Z,6.72
2023-01-09T05:21:30.122Z,6.72
2023-01-09T05:22:03.055Z,6.72
2023-01-09T05:22:34.202Z,6.72
2023-01-09T05:23:06.939Z,6.72
2023-01-09T05:23:38.048Z,6.72
2023-01-09T05:24:11.062Z,6.72
2023-01-09T05:24:42.156Z,6.72
2023-01-09T05:25:14.874Z,6.72
2023-01-09T05:25:46.026Z,6.72
2023-01-09T05:26:18.903Z,6.72
2023-01-09T05:26:50.025Z,6.72
2023-01-09T05:27:22.785Z,6.72
2023-01-09T05:27:53.899Z,6.72
2023-01-09T05:28:26.941Z,6.72
2023-01-09T05:28:57.948Z,6.61
2023-01-09T05:29:30.695Z,6.61
2023-01-09T05:30:02.287Z,6.61
2023-01-09T05:30:35.469Z,6.61
2023-01-09T05:31:05.915Z,6.61
2023-01-09T05:31:38.657Z,6.61
2023-01-09T05:32:09.730Z,6.61
2023-01-09T05:32:42.635Z,6.61
2023-01-09T05:33:13.759Z,6.61
2023-01-09T05:33:46.521Z,6.61
2023-01-09T05:34:17.596Z,6.61
2023-01-09T05:34:50.644Z,6.61
2023-01-09T05:35:21.670Z,6.61
2023-01-09T05:35:54.449Z,6.61
2023-01-09T05:36:25.571Z,6.61
2023-01-09T05:36:58.514Z,6.61
2023-01-09T05:37:29.633Z,6.61
2023-01-09T05:38:02.341Z,6.61
2023-01-09T05:38:33.467Z,6.61
2023-01-09T05:39:06.400Z,6.61
2023-01-09T05:39:37.545Z,6.61
2023-01-09T05:40:10.307Z,6.61
2023-01-09T05:40:41.360Z,6.61
2023-01-09T05:41:14.222Z,6.50
2023-01-09T05:41:45.763Z,6.50
2023-01-09T05:42:18.034Z,6.50
2023-01-09T05:42:49.304Z,6.50
2023-01-09T05:43:22.268Z,6.50
2023-01-09T05:43:53.327Z,6.50
2023-01-09T05:44:26.969Z,6.50
2023-01-09T05:44:57.181Z,6.50
2023-01-09T05:45:30.417Z,6.50
2023-01-09T05:46:01.515Z,6.50
2023-01-09T05:46:34.068Z,6.38
2023-01-09T05:47:05.159Z,6.38
2023-01-09T05:47:38.085Z,6.38
2023-01-09T05:48:09.014Z,6.38
2023-01-09T05:48:41.986Z,6.38
2023-01-09T05:49:13.039Z,6.38
2023-01-09T05:49:45.905Z,6.38
2023-01-09T05:50:16.889Z,6.38
2023-01-09T05:50:49.720Z,6.38
2023-01-09T05:51:20.971Z,6.38
2023-01-09T05:51:53.937Z,6.38
2023-01-09T05:52:24.838Z,6.38
2023-01-09T05:52:57.823Z,6.38
2023-01-09T05:53:28.872Z,6.38
2023-01-09T05:54:01.937Z,6.38
2023-01-09T05:54:32.717Z,6.38
2023-01-09T05:55:05.682Z,6.38
2023-01-09T05:55:36.810Z,6.38
2023-01-09T05:56:11.680Z,6.38
2023-01-09T05:56:40.664Z,6.38
2023-01-09T05:57:13.510Z,6.27
2023-01-09T05:57:44.674Z,6.27
2023-01-09T05:58:17.726Z,6.27
2023-01-09T05:58:48.551Z,6.27
2023-01-09T05:59:22.529Z,6.27
2023-01-09T05:59:52.667Z,6.27
2023-01-09T06:00:25.667Z,6.27
2023-01-09T06:00:56.504Z,6.27
2023-01-09T06:01:29.674Z,6.27
2023-01-09T06:02:00.681Z,6.27
2023-01-09T06:02:33.446Z,6.27
2023-01-09T06:03:04.474Z,6.27
2023-01-09T06:03:37.466Z,6.27
2023-01-09T06:04:08.470Z,6.27
2023-01-09T06:04:41.385Z,6.27
2023-01-09T06:05:12.322Z,6.27
2023-01-09T06:05:45.235Z,6.22
2023-01-09T06:06:16.387Z,6.22
2023-01-09T06:06:49.225Z,6.22
2023-01-09T06:07:22.736Z,6.22
2023-01-09T06:07:53.290Z,6.22
2023-01-09T06:08:24.327Z,6.22
2023-01-09T06:08:56.989Z,6.22
2023-01-09T06:09:28.134Z,6.11
2023-01-09T06:10:01.362Z,6.11
2023-01-09T06:10:32.192Z,6.11
2023-01-09T06:11:04.943Z,6.11
2023-01-09T06:11:36.086Z,6.11
2023-01-09T06:12:09.065Z,6.11
2023-01-09T06:12:40.092Z,6.11
2023-01-09T06:13:12.838Z,6.11
2023-01-09T06:13:44.023Z,6.11
2023-01-09T06:14:17.722Z,6.11
2023-01-09T06:14:48.103Z,6.11
2023-01-09T06:15:20.975Z,6.11
2023-01-09T06:15:51.954Z,6.11
2023-01-09T06:16:24.996Z,6.11
2023-01-09T06:16:55.995Z,6.00
2023-01-09T06:17:28.736Z,6.00
2023-01-09T06:17:59.827Z,6.00
2023-01-09T06:18:32.836Z,6.00
2023-01-09T06:19:03.878Z,6.11
2023-01-09T06:19:36.644Z,6.11
2023-01-09T06:20:07.772Z,6.11
2023-01-09T06:20:40.673Z,6.11
2023-01-09T06:21:12.183Z,6.11
2023-01-09T06:21:44.650Z,6.11
2023-01-09T06:22:15.653Z,6.11
2023-01-09T06:22:48.533Z,6.11
2023-01-09T06:23:19.484Z,6.11
2023-01-09T06:23:52.479Z,6.11
2023-01-09T06:24:23.564Z,6.11
2023-01-09T06:24:56.501Z,6.11
2023-01-09T06:25:27.613Z,6.11
2023-01-09T06:26:00.290Z,6.11
2023-01-09T06:26:31.584Z,6.11
2023-01-09T06:27:04.387Z,6.11
2023-01-09T06:27:35.460Z,6.11
2023-01-09T06:28:08.402Z,6.11
2023-01-09T06:28:39.503Z,6.11
2023-01-09T06:29:12.201Z,6.11
2023-01-09T06:29:44.038Z,6.11
2023-01-09T06:30:28.509Z,6.11
2023-01-09T06:30:47.364Z,6.00
2023-01-09T06:31:19.461Z,6.00
2023-01-09T06:31:51.196Z,6.00
2023-01-09T06:32:23.187Z,6.00
2023-01-09T06:32:55.237Z,6.00
2023-01-09T06:33:27.218Z,6.00
2023-01-09T06:33:59.042Z,5.88
2023-01-09T06:34:31.127Z,5.88
2023-01-09T06:35:03.149Z,5.88
2023-01-09T06:35:35.229Z,5.88
2023-01-09T06:36:06.987Z,5.88
2023-01-09T06:36:39.021Z,5.88
2023-01-09T06:37:11.071Z,5.77
2023-01-09T06:37:43.081Z,5.77
2023-01-09T06:38:14.912Z,5.77
2023-01-09T06:38:46.920Z,5.77
2023-01-09T06:39:18.963Z,5.77
2023-01-09T06:39:51.046Z,5.77
2023-01-09T06:40:22.852Z,5.72
2023-01-09T06:40:54.835Z,5.72
2023-01-09T06:41:26.913Z,5.72
2023-01-09T06:41:58.778Z,5.72
2023-01-09T06:42:30.795Z,5.61
2023-01-09T06:43:02.763Z,5.61
2023-01-09T06:43:34.886Z,5.61
2023-01-09T06:44:06.652Z,5.61
2023-01-09T06:44:38.919Z,5.61
2023-01-09T06:45:10.983Z,5.50
2023-01-09T06:45:42.757Z,5.50
2023-01-09T06:46:14.672Z,5.50
2023-01-09T06:46:46.636Z,5.50
2023-01-09T06:47:18.668Z,5.38
2023-01-09T06:47:50.720Z,5.38
2023-01-09T06:48:22.515Z,5.38
2023-01-09T06:48:54.531Z,5.38
2023-01-09T06:49:26.560Z,5.27
2023-01-09T06:49:58.426Z,5.27
2023-01-09T06:50:30.524Z,5.27
2023-01-09T06:51:02.485Z,5.22
2023-01-09T06:51:34.554Z,5.22
2023-01-09T06:52:06.411Z,5.22
2023-01-09T06:52:38.381Z,5.22
2023-01-09T06:53:10.409Z,5.11
2023-01-09T06:53:42.238Z,5.11
2023-01-09T06:54:14.255Z,5.11
2023-01-09T06:54:46.426Z,5.11
2023-01-09T06:55:18.333Z,5.00
2023-01-09T06:55:50.110Z,5.00
2023-01-09T06:56:22.150Z,5.00
2023-01-09T06:56:54.250Z,5.00
2023-01-09T06:57:26.344Z,5.00
2023-01-09T06:57:58.082Z,5.00
2023-01-09T06:58:30.092Z,5.00
2023-01-09T06:59:02.155Z,5.00
2023-01-09T06:59:34.461Z,5.00
2023-01-09T07:00:06.707Z,5.00
2023-01-09T07:00:37.981Z,5.00
2023-01-09T07:01:10.428Z,5.00
2023-01-09T07:01:42.220Z,5.00
2023-01-09T07:02:13.999Z,5.00
2023-01-09T07:02:46.472Z,5.00
2023-01-09T07:03:17.912Z,5.00
2023-01-09T07:03:50.148Z,5.00
2023-01-09T07:04:21.848Z,5.00
2023-01-09T07:04:53.834Z,5.00
2023-01-09T07:05:25.875Z,5.00